createdAt,value
2018-04-24T00:01:33.811Z,43.40
2018-04-24T00:04:01.810Z,43.40
2018-04-24T00:06:29.760Z,43.40
2018-04-24T00:08:58.576Z,43.60
2018-04-24T00:11:26.524Z,43.60
2018-04-24T00:13:55.249Z,43.80
2018-04-24T00:16:23.168Z,43.70
2018-04-24T00:18:51.840Z,44.20
2018-04-24T00:21:19.777Z,44.10
2018-04-24T00:23:47.702Z,44.20
2018-04-24T00:26:15.724Z,44.20
2018-04-24T00:28:43.684Z,44.30
2018-04-24T00:31:11.642Z,44.40
2018-04-24T00:33:39.632Z,44.40
2018-04-24T00:36:07.642Z,44.60
2018-04-24T00:38:36.425Z,44.80
2018-04-24T00:41:05.152Z,45.40
2018-04-24T00:43:33.133Z,44.80
2018-04-24T00:46:01.844Z,45.50
2018-04-24T00:48:29.783Z,44.80
2018-04-24T00:50:57.741Z,44.90
2018-04-24T00:53:37.589Z,44.90
2018-04-24T00:56:05.524Z,44.90
2018-04-24T00:58:34.371Z,45.00
2018-04-24T01:01:02.293Z,44.90
2018-04-24T01:03:30.238Z,45.00
2018-04-24T01:05:59.006Z,45.20
2018-04-24T01:08:27.000Z,45.10
2018-04-24T01:10:55.695Z,45.10
2018-04-24T01:13:24.520Z,45.10
2018-04-24T01:15:52.440Z,45.10
2018-04-24T01:20:54.118Z,45.10
2018-04-24T01:25:55.827Z,45.20
2018-04-24T01:28:23.840Z,45.90
2018-04-24T01:30:51.754Z,45.30
2018-04-24T01:33:19.780Z,45.30
2018-04-24T01:35:47.727Z,45.30
2018-04-24T01:38:15.690Z,45.40
2018-04-24T01:40:43.608Z,45.60
2018-04-24T01:43:12.282Z,45.70
2018-04-24T01:45:40.237Z,45.60
2018-04-24T01:48:08.181Z,45.70
2018-04-24T01:50:36.147Z,45.70
2018-04-24T01:53:04.080Z,45.70
2018-04-24T01:55:32.013Z,45.80
2018-04-24T01:58:00.000Z,45.90
2018-04-24T02:00:28.775Z,46.00
2018-04-24T02:02:56.715Z,45.90
2018-04-24T02:05:25.384Z,45.90
2018-04-24T02:07:53.327Z,45.90
2018-04-24T02:10:21.371Z,45.90
2018-04-24T02:12:49.299Z,45.90
2018-04-24T02:15:17.309Z,46.00
2018-04-24T02:17:45.266Z,46.10
2018-04-24T02:20:13.207Z,46.10
2018-04-24T02:22:41.235Z,46.10
2018-04-24T02:25:09.165Z,46.10
2018-04-24T02:27:37.057Z,46.10
2018-04-24T02:30:05.788Z,46.20
2018-04-24T02:32:33.847Z,46.20
2018-04-24T02:35:01.824Z,46.20
2018-04-24T02:37:29.841Z,46.20
2018-04-24T02:42:30.724Z,46.90
2018-04-24T02:44:58.677Z,46.40
2018-04-24T02:47:27.406Z,46.50
2018-04-24T02:49:55.409Z,46.60
2018-04-24T02:52:23.367Z,46.60
2018-04-24T02:54:51.396Z,46.70
2018-04-24T02:57:19.390Z,46.70
2018-04-24T02:59:47.332Z,46.80
2018-04-24T03:02:15.303Z,46.90
2018-04-24T03:04:43.308Z,46.90
2018-04-24T03:07:11.336Z,46.90
2018-04-24T03:09:39.354Z,47.00
2018-04-24T03:12:07.304Z,47.00
2018-04-24T03:14:35.247Z,47.00
2018-04-24T03:17:03.188Z,47.00
2018-04-24T03:19:31.928Z,47.10
2018-04-24T03:21:59.848Z,47.00
2018-04-24T03:24:28.576Z,47.00
2018-04-24T03:26:56.592Z,47.00
2018-04-24T03:29:24.519Z,47.10
2018-04-24T03:31:52.535Z,47.10
2018-04-24T03:34:20.451Z,47.20
2018-04-24T03:36:48.400Z,47.30
2018-04-24T03:39:16.292Z,47.20
2018-04-24T03:41:44.313Z,47.30
2018-04-24T03:44:13.092Z,47.40
2018-04-24T03:46:41.081Z,47.40
2018-04-24T03:49:09.759Z,47.40
2018-04-24T03:51:38.531Z,47.40
2018-04-24T03:54:06.509Z,47.40
2018-04-24T03:56:34.534Z,47.40
2018-04-24T03:59:02.541Z,47.50
2018-04-24T04:01:30.460Z,47.40
2018-04-24T04:03:58.457Z,47.40
2018-04-24T04:09:00.245Z,47.60
2018-04-24T04:11:28.258Z,47.60
2018-04-24T04:13:56.176Z,47.80
2018-04-24T04:16:24.152Z,47.90
2018-04-24T04:19:04.142Z,48.00
2018-04-24T04:21:43.934Z,48.20
2018-04-24T04:24:23.778Z,48.20
2018-04-24T04:26:51.713Z,48.30
2018-04-24T04:29:21.431Z,48.50
2018-04-24T04:31:49.420Z,48.50
2018-04-24T04:34:17.357Z,48.70
2018-04-24T04:36:45.372Z,48.50
2018-04-24T04:41:46.420Z,48.60
2018-04-24T04:44:14.316Z,48.70
2018-04-24T04:46:42.307Z,48.80
2018-04-24T04:49:10.992Z,48.90
2018-04-24T04:51:39.749Z,49.00
2018-04-24T04:54:07.716Z,48.90
2018-04-24T04:56:35.664Z,49.00
2018-04-24T04:59:03.634Z,49.10
2018-04-24T05:01:31.610Z,48.90
2018-04-24T05:03:59.528Z,48.80
2018-04-24T05:06:28.231Z,49.30
2018-04-24T05:08:56.215Z,48.70
2018-04-24T05:11:24.234Z,48.70
2018-04-24T05:13:52.265Z,48.70
2018-04-24T05:16:20.185Z,48.50
2018-04-24T05:18:48.952Z,48.50
2018-04-24T05:21:23.573Z,48.50
2018-04-24T05:23:51.592Z,48.60
2018-04-24T05:26:19.503Z,48.70
2018-04-24T05:28:47.399Z,48.60
2018-04-24T05:31:16.105Z,48.40
2018-04-24T05:36:17.739Z,48.20
2018-04-24T05:38:45.752Z,48.20
2018-04-24T05:41:13.677Z,48.20
2018-04-24T05:43:41.685Z,48.30
2018-04-24T05:46:09.693Z,48.20
2018-04-24T05:48:37.730Z,48.10
2018-04-24T05:51:05.764Z,48.10
2018-04-24T05:53:33.667Z,48.10
2018-04-24T05:56:01.651Z,48.00
2018-04-24T05:58:29.680Z,48.10
2018-04-24T06:00:58.364Z,48.20
2018-04-24T06:03:27.149Z,48.30
2018-04-24T06:05:55.960Z,48.20
2018-04-24T06:08:23.992Z,48.20
2018-04-24T06:10:51.877Z,48.20
2018-04-24T06:13:20.607Z,48.30
2018-04-24T06:15:48.616Z,48.20
2018-04-24T06:18:16.608Z,48.00
2018-04-24T06:20:45.346Z,47.80
2018-04-24T06:23:13.306Z,47.80
2018-04-24T06:25:41.223Z,47.70
2018-04-24T06:28:09.892Z,48.00
2018-04-24T06:30:37.917Z,47.40
2018-04-24T06:35:38.835Z,47.50
2018-04-24T06:38:07.624Z,47.30
2018-04-24T06:40:36.328Z,47.20
2018-04-24T06:43:04.236Z,47.20
2018-04-24T06:45:32.176Z,47.20
2018-04-24T06:48:00.207Z,47.20
2018-04-24T06:50:28.920Z,46.90
2018-04-24T06:52:56.833Z,46.90
2018-04-24T06:55:25.599Z,47.00
2018-04-24T07:00:26.459Z,46.90
2018-04-24T07:02:54.483Z,46.70
2018-04-24T07:05:23.254Z,46.80
2018-04-24T07:07:51.253Z,46.80
2018-04-24T07:10:19.195Z,47.00
2018-04-24T07:12:47.109Z,46.90
2018-04-24T07:15:15.044Z,46.90
2018-04-24T07:22:49.695Z,46.60
2018-04-24T07:25:18.465Z,46.60
2018-04-24T07:27:47.262Z,46.60
2018-04-24T07:30:15.184Z,46.60
2018-04-24T07:32:43.167Z,46.60
2018-04-24T07:35:11.169Z,46.50
2018-04-24T07:37:39.139Z,46.60
2018-04-24T07:40:07.145Z,46.40
2018-04-24T07:42:35.104Z,46.40
2018-04-24T07:45:03.825Z,46.00
2018-04-24T07:47:31.771Z,46.00
2018-04-24T07:49:59.776Z,46.10
2018-04-24T07:52:27.672Z,46.00
2018-04-24T07:54:55.716Z,45.70
2018-04-24T07:57:24.328Z,45.40
2018-04-24T07:59:52.348Z,45.50
2018-04-24T08:02:20.298Z,45.50
2018-04-24T08:04:48.271Z,45.60
2018-04-24T08:07:16.237Z,45.60
2018-04-24T08:09:44.165Z,45.90
2018-04-24T08:12:12.171Z,46.10
2018-04-24T08:14:40.188Z,45.90
2018-04-24T08:17:08.081Z,45.70
2018-04-24T08:19:36.091Z,45.50
2018-04-24T08:22:04.139Z,45.10
2018-04-24T08:24:32.816Z,44.50
2018-04-24T08:29:34.495Z,44.90
2018-04-24T08:32:03.183Z,43.90
2018-04-24T08:34:31.966Z,43.80
2018-04-24T08:36:59.974Z,43.70
2018-04-24T08:39:27.935Z,43.20
2018-04-24T08:41:55.931Z,43.20
2018-04-24T08:44:23.883Z,42.90
2018-04-24T08:46:51.879Z,42.70
2018-04-24T08:49:19.864Z,42.70
2018-04-24T08:51:47.828Z,42.90
2018-04-24T08:54:15.806Z,43.00
2018-04-24T08:56:44.477Z,43.40
2018-04-24T08:59:12.380Z,43.40
2018-04-24T09:01:41.106Z,43.60
2018-04-24T09:04:09.280Z,43.60
2018-04-24T09:06:37.225Z,43.80
2018-04-24T09:09:07.432Z,43.50
2018-04-24T09:16:42.687Z,41.90
2018-04-24T09:19:11.476Z,42.10
2018-04-24T09:21:40.268Z,42.00
2018-04-24T09:24:08.339Z,41.90
2018-04-24T09:26:37.050Z,41.30
2018-04-24T09:29:05.053Z,41.30
2018-04-24T09:31:38.699Z,41.00
2018-04-24T09:34:07.477Z,39.90
2018-04-24T09:36:36.204Z,39.80
2018-04-24T09:39:07.243Z,39.80
2018-04-24T09:41:35.988Z,39.30
2018-04-24T09:44:03.943Z,39.30
2018-04-24T09:46:31.929Z,38.80
2018-04-24T09:49:00.757Z,38.00
2018-04-24T09:51:28.672Z,37.90
2018-04-24T09:53:56.627Z,37.50
2018-04-24T09:56:24.631Z,37.00
2018-04-24T09:58:53.392Z,36.50
2018-04-24T10:01:21.416Z,36.40
2018-04-24T10:03:50.298Z,36.40
2018-04-24T10:06:18.322Z,36.40
2018-04-24T10:08:46.251Z,36.20
2018-04-24T10:11:14.336Z,35.90
2018-04-24T10:13:42.391Z,35.70
2018-04-24T10:16:10.322Z,35.50
2018-04-24T10:18:39.202Z,35.30
2018-04-24T10:21:07.166Z,35.30
2018-04-24T10:23:35.120Z,35.10
2018-04-24T10:26:03.157Z,35.20
2018-04-24T10:28:31.251Z,35.70
2018-04-24T10:31:01.299Z,34.70
2018-04-24T10:33:29.378Z,34.50
2018-04-24T10:35:58.168Z,33.70
2018-04-24T10:38:26.936Z,33.30
2018-04-24T10:40:54.897Z,33.30
2018-04-24T10:43:24.324Z,33.90
2018-04-24T10:45:53.012Z,33.00
2018-04-24T10:48:21.763Z,32.60
2018-04-24T10:50:49.744Z,32.60
2018-04-24T10:53:17.755Z,32.50
2018-04-24T10:55:45.657Z,32.50
2018-04-24T10:58:13.615Z,32.20
2018-04-24T11:00:41.678Z,32.10
2018-04-24T11:03:09.700Z,31.90
2018-04-24T11:05:37.624Z,31.60
2018-04-24T11:08:05.635Z,31.40
2018-04-24T11:10:33.640Z,31.20
2018-04-24T11:13:02.400Z,30.80
2018-04-24T11:15:30.488Z,30.80
2018-04-24T11:17:59.260Z,30.40
2018-04-24T11:20:27.252Z,30.40
2018-04-24T11:22:56.008Z,30.20
2018-04-24T11:25:24.017Z,30.10
2018-04-24T11:27:51.931Z,30.00
2018-04-24T11:30:19.921Z,29.90
2018-04-24T11:32:47.885Z,29.60
2018-04-24T11:35:15.944Z,29.40
2018-04-24T11:37:43.868Z,29.30
2018-04-24T11:40:11.984Z,29.10
2018-04-24T11:42:40.025Z,29.20
2018-04-24T11:45:07.965Z,29.10
2018-04-24T11:47:36.852Z,28.90
2018-04-24T11:50:05.590Z,28.80
2018-04-24T11:55:06.495Z,28.70
2018-04-24T11:57:35.214Z,28.30
2018-04-24T12:00:03.265Z,28.20
2018-04-24T12:02:31.227Z,28.10
2018-04-24T12:04:59.900Z,28.00
2018-04-24T12:07:28.628Z,27.90
2018-04-24T12:09:56.667Z,27.80
2018-04-24T12:12:25.365Z,27.70
2018-04-24T12:14:53.322Z,27.70
2018-04-24T12:17:22.099Z,27.30
2018-04-24T12:19:50.772Z,27.20
2018-04-24T12:22:18.695Z,27.10
2018-04-24T12:24:46.629Z,27.10
2018-04-24T12:27:15.384Z,27.20
2018-04-24T12:29:43.380Z,27.20
2018-04-24T12:32:12.184Z,27.10
2018-04-24T12:34:40.124Z,27.00
2018-04-24T12:37:08.040Z,26.90
2018-04-24T12:39:35.972Z,26.90
2018-04-24T12:42:04.676Z,27.20
2018-04-24T12:44:32.609Z,27.20
2018-04-24T12:47:00.635Z,27.50
2018-04-24T12:49:28.661Z,27.80
2018-04-24T12:51:57.408Z,28.40
2018-04-24T12:54:25.441Z,28.40
2018-04-24T12:56:53.413Z,28.60
2018-04-24T12:59:21.361Z,28.70
2018-04-24T13:01:50.068Z,29.10
2018-04-24T13:04:18.049Z,29.10
2018-04-24T13:06:46.006Z,29.10
2018-04-24T13:09:13.948Z,29.10
2018-04-24T13:14:16.470Z,29.60
2018-04-24T13:16:44.439Z,29.60
2018-04-24T13:21:46.260Z,30.00
2018-04-24T13:24:14.192Z,30.00
2018-04-24T13:26:42.095Z,30.40
2018-04-24T13:29:10.039Z,30.70
2018-04-24T13:31:38.006Z,30.90
2018-04-24T13:34:05.944Z,31.20
2018-04-24T13:36:33.956Z,31.60
2018-04-24T13:39:01.960Z,31.70
2018-04-24T13:41:29.904Z,31.70
2018-04-24T13:43:57.843Z,31.70
2018-04-24T13:46:25.857Z,31.70
2018-04-24T13:48:53.811Z,31.80
2018-04-24T13:51:22.608Z,32.10
2018-04-24T13:53:50.618Z,32.10
2018-04-24T13:56:18.530Z,32.30
2018-04-24T13:58:46.452Z,32.50
2018-04-24T14:01:14.464Z,32.70
2018-04-24T14:03:42.488Z,32.70
2018-04-24T14:06:11.186Z,32.80
2018-04-24T14:08:39.348Z,32.80
2018-04-24T14:11:08.016Z,33.10
2018-04-24T14:13:36.036Z,33.10
2018-04-24T14:16:03.965Z,33.10
2018-04-24T14:18:33.156Z,33.40
2018-04-24T14:21:01.275Z,33.30
2018-04-24T14:23:29.237Z,33.40
2018-04-24T14:25:57.540Z,33.30
2018-04-24T14:28:25.551Z,33.60
2018-04-24T14:30:54.318Z,33.50
2018-04-24T14:33:22.235Z,33.50
2018-04-24T14:35:50.159Z,33.40
2018-04-24T14:38:18.168Z,33.60
2018-04-24T14:40:46.083Z,33.70
2018-04-24T14:43:14.049Z,34.00
2018-04-24T14:45:42.033Z,34.30
2018-04-24T14:48:10.040Z,34.00
2018-04-24T14:50:37.944Z,34.20
2018-04-24T14:53:06.741Z,34.30
2018-04-24T14:55:36.159Z,34.20
2018-04-24T14:58:04.238Z,34.20
2018-04-24T15:00:32.997Z,34.30
2018-04-24T15:03:00.982Z,34.30
2018-04-24T15:05:28.908Z,34.40
2018-04-24T15:07:56.904Z,34.80
2018-04-24T15:10:24.820Z,34.70
2018-04-24T15:12:52.716Z,34.70
2018-04-24T15:15:20.674Z,34.70
2018-04-24T15:17:48.615Z,34.60
2018-04-24T15:20:17.379Z,34.80
2018-04-24T15:22:45.324Z,34.70
2018-04-24T15:25:13.293Z,34.60
2018-04-24T15:27:41.316Z,34.60
2018-04-24T15:30:10.072Z,34.70
2018-04-24T15:32:38.796Z,34.80
2018-04-24T15:35:06.877Z,34.80
2018-04-24T15:37:34.756Z,35.50
2018-04-24T15:40:02.695Z,35.10
2018-04-24T15:42:31.489Z,35.10
2018-04-24T15:44:59.400Z,35.10
2018-04-24T15:47:28.104Z,35.30
2018-04-24T15:49:56.039Z,35.20
2018-04-24T15:52:24.052Z,35.40
2018-04-24T15:54:51.982Z,35.70
2018-04-24T15:57:20.790Z,36.10
2018-04-24T15:59:48.703Z,36.10
2018-04-24T16:02:16.644Z,35.90
2018-04-24T16:04:44.576Z,35.70
2018-04-24T16:07:12.487Z,36.20
2018-04-24T16:09:41.182Z,35.90
2018-04-24T16:12:09.868Z,35.90
2018-04-24T16:14:38.561Z,36.00
2018-04-24T16:17:06.514Z,36.00
2018-04-24T16:19:35.282Z,35.90
2018-04-24T16:22:03.240Z,35.90
2018-04-24T16:24:31.229Z,35.90
2018-04-24T16:26:59.204Z,36.00
2018-04-24T16:29:27.957Z,36.00
2018-04-24T16:31:56.015Z,36.00
2018-04-24T16:34:23.974Z,36.20
2018-04-24T16:36:51.927Z,36.30
2018-04-24T16:39:20.211Z,36.30
2018-04-24T16:41:48.213Z,36.50
2018-04-24T16:44:16.157Z,36.50
2018-04-24T16:46:44.187Z,37.20
2018-04-24T16:49:12.872Z,36.90
2018-04-24T16:51:41.589Z,37.10
2018-04-24T16:54:09.556Z,37.00
2018-04-24T16:56:37.545Z,37.00
2018-04-24T16:59:05.874Z,36.90
2018-04-24T17:01:33.882Z,36.90
2018-04-24T17:04:01.840Z,37.00
2018-04-24T17:06:29.806Z,37.00
2018-04-24T17:08:57.809Z,37.20
2018-04-24T17:11:25.864Z,37.20
2018-04-24T17:13:54.233Z,37.30
2018-04-24T17:16:22.705Z,37.30
2018-04-24T17:18:51.041Z,37.30
2018-04-24T17:21:20.101Z,37.30
2018-04-24T17:26:22.012Z,37.20
2018-04-24T17:28:50.304Z,37.10
2018-04-24T17:31:18.549Z,37.20
2018-04-24T17:33:46.824Z,37.40
2018-04-24T17:36:15.041Z,37.90
2018-04-24T17:38:43.264Z,38.30
2018-04-24T17:41:12.292Z,38.80
2018-04-24T17:43:41.299Z,39.30
2018-04-24T17:46:09.252Z,39.30
2018-04-24T17:48:37.181Z,39.80
2018-04-24T17:51:05.160Z,40.40
2018-04-24T17:53:33.105Z,40.30
2018-04-24T17:56:01.045Z,40.80
2018-04-24T17:58:29.712Z,40.80
2018-04-24T18:00:57.656Z,40.80
2018-04-24T18:03:25.658Z,40.80
2018-04-24T18:05:54.382Z,41.50
2018-04-24T18:08:22.388Z,41.40
2018-04-24T18:10:51.086Z,41.10
2018-04-24T18:13:19.011Z,41.10
2018-04-24T18:15:46.916Z,41.00
2018-04-24T18:20:47.954Z,41.20
2018-04-24T18:23:15.944Z,41.40
2018-04-24T18:25:44.801Z,41.50
2018-04-24T18:28:12.980Z,41.40
2018-04-24T18:30:41.104Z,41.20
2018-04-24T18:33:09.862Z,40.90
2018-04-24T18:35:37.937Z,40.90
2018-04-24T18:38:05.869Z,40.80
2018-04-24T18:40:33.788Z,40.90
2018-04-24T18:43:01.740Z,40.70
2018-04-24T18:45:29.694Z,40.60
2018-04-24T18:47:57.714Z,40.50
2018-04-24T18:50:26.489Z,40.20
2018-04-24T18:52:55.242Z,40.70
2018-04-24T18:55:23.289Z,40.10
2018-04-24T18:57:51.225Z,39.80
2018-04-24T19:00:19.224Z,39.70
2018-04-24T19:02:47.216Z,39.40
2018-04-24T19:05:15.244Z,39.40
2018-04-24T19:07:43.248Z,39.20
2018-04-24T19:10:11.185Z,39.20
2018-04-24T19:15:12.757Z,39.00
2018-04-24T19:17:40.827Z,39.00
2018-04-24T19:20:08.817Z,39.00
2018-04-24T19:22:36.720Z,39.00
2018-04-24T19:25:10.320Z,39.00
2018-04-24T19:27:38.259Z,39.00
2018-04-24T19:30:06.328Z,39.00
2018-04-24T19:32:34.263Z,38.90
2018-04-24T19:35:02.231Z,39.10
2018-04-24T19:37:31.056Z,39.10
2018-04-24T19:40:04.880Z,39.10
2018-04-24T19:42:32.956Z,39.30
2018-04-24T19:45:00.953Z,39.40
2018-04-24T19:47:29.733Z,39.40
2018-04-24T19:50:03.150Z,39.40
2018-04-24T19:52:31.855Z,39.60
2018-04-24T19:55:05.268Z,39.60
2018-04-24T19:57:33.180Z,39.70
2018-04-24T20:00:01.136Z,39.80
2018-04-24T20:02:29.076Z,39.40
2018-04-24T20:04:57.030Z,39.90
2018-04-24T20:07:25.060Z,40.00
2018-04-24T20:09:53.117Z,40.10
2018-04-24T20:12:21.155Z,40.10
2018-04-24T20:14:49.164Z,40.00
2018-04-24T20:17:17.197Z,40.00
2018-04-24T20:19:45.122Z,40.00
2018-04-24T20:22:13.833Z,40.00
2018-04-24T20:24:41.856Z,40.00
2018-04-24T20:27:09.852Z,40.20
2018-04-24T20:29:38.564Z,40.20
2018-04-24T20:32:06.584Z,40.20
2018-04-24T20:34:34.522Z,40.10
2018-04-24T20:37:02.491Z,40.10
2018-04-24T20:39:30.441Z,40.10
2018-04-24T20:41:58.418Z,40.10
2018-04-24T20:47:00.213Z,40.00
2018-04-24T20:49:29.455Z,39.80
2018-04-24T20:51:57.531Z,39.80
2018-04-24T20:54:25.544Z,39.80
2018-04-24T20:56:53.468Z,39.90
2018-04-24T20:59:21.551Z,40.00
2018-04-24T21:01:49.476Z,40.10
2018-04-24T21:04:17.409Z,40.10
2018-04-24T21:06:45.437Z,40.00
2018-04-24T21:09:14.124Z,39.80
2018-04-24T21:11:42.892Z,39.80
2018-04-24T21:14:10.831Z,39.80
2018-04-24T21:16:38.905Z,39.80
2018-04-24T21:19:06.883Z,39.70
2018-04-24T21:21:34.806Z,39.60
2018-04-24T21:24:02.762Z,39.60
2018-04-24T21:26:31.455Z,39.60
2018-04-24T21:28:59.460Z,39.60
2018-04-24T21:31:27.445Z,39.50
2018-04-24T21:33:55.385Z,39.50
2018-04-24T21:36:23.412Z,39.50
2018-04-24T21:38:52.106Z,39.30
2018-04-24T21:41:20.928Z,39.30
2018-04-24T21:43:48.923Z,39.30
2018-04-24T21:48:49.899Z,39.30
2018-04-24T21:51:17.922Z,39.30
2018-04-24T21:53:45.875Z,39.30
2018-04-24T21:56:13.830Z,39.30
2018-04-24T21:58:42.544Z,39.30
2018-04-24T22:01:10.537Z,39.20
2018-04-24T22:03:38.503Z,39.20
2018-04-24T22:06:06.461Z,39.20
2018-04-24T22:08:34.382Z,39.20
2018-04-24T22:13:36.160Z,39.20
2018-04-24T22:18:37.844Z,39.30
2018-04-24T22:21:05.870Z,39.30
2018-04-24T22:23:33.760Z,39.30
2018-04-24T22:26:01.769Z,39.20
2018-04-24T22:28:29.772Z,39.30
2018-04-24T22:30:57.756Z,39.40
2018-04-24T22:33:25.710Z,39.40
2018-04-24T22:35:53.639Z,39.50
2018-04-24T22:38:21.600Z,39.60
2018-04-24T22:40:49.605Z,39.70
2018-04-24T22:43:17.609Z,39.80
2018-04-24T22:45:45.631Z,40.00
2018-04-24T22:48:13.596Z,39.90
2018-04-24T22:50:41.615Z,40.20
2018-04-24T22:53:09.561Z,40.20
2018-04-24T22:55:37.653Z,40.40
2018-04-24T22:58:05.653Z,40.60
2018-04-24T23:00:34.442Z,40.90
2018-04-24T23:03:02.439Z,40.80
2018-04-24T23:05:30.394Z,41.00
2018-04-24T23:07:58.407Z,41.10
2018-04-24T23:10:38.260Z,41.30
2018-04-24T23:13:18.141Z,41.40
2018-04-24T23:15:58.616Z,41.70
2018-04-24T23:21:10.875Z,41.70
2018-04-24T23:23:38.855Z,41.90
2018-04-24T23:26:06.861Z,42.00
2018-04-24T23:28:35.563Z,42.40
2018-04-24T23:31:03.634Z,42.30
2018-04-24T23:33:31.590Z,42.50
2018-04-24T23:36:00.288Z,42.70
2018-04-24T23:38:28.253Z,42.70
2018-04-24T23:43:29.253Z,43.10
2018-04-24T23:45:57.218Z,43.20
2018-04-24T23:48:25.228Z,43.30
2018-04-24T23:50:54.001Z,43.30
2018-04-24T23:53:22.028Z,43.30
2018-04-24T23:55:49.996Z,43.40
2018-04-24T23:58:18.064Z,43.40
